sensor_id;sensor_type;location;lat;lon;timestamp;pressure;altitude;pressure_sealevel;temperature;humidity
13434;BME280;6789;47.678;9.158;2022-10-31T00:03:01;97248.66;;;11.20;100.00
13434;BME280;6789;47.678;9.158;2022-10-31T00:07:53;97255.94;;;11.18;100.00
13434;BME280;6789;47.678;9.158;2022-10-31T00:12:45;97251.06;;;11.21;100.00
13434;BME280;6789;47.678;9.158;2022-10-31T00:17:37;97253.09;;;11.19;100.00
13434;BME280;6789;47.678;9.158;2022-10-31T00:22:29;97256.00;;;11.11;100.00
13434;BME280;6789;47.678;9.158;2022-10-31T00:27:20;97251.94;;;11.15;100.00
13434;BME280;6789;47.678;9.158;2022-10-31T00:32:12;97243.16;;;11.03;100.00
13434;BME280;6789;47.678;9.158;2022-10-31T00:37:04;97244.16;;;11.02;100.00
13434;BME280;6789;47.678;9.158;2022-10-31T00:41:55;97246.16;;;11.07;100.00
13434;BME280;6789;47.678;9.158;2022-10-31T00:46:47;97236.19;;;11.15;100.00
13434;BME280;6789;47.678;9.158;2022-10-31T00:51:39;97236.56;;;11.19;100.00
13434;BME280;6789;47.678;9.158;2022-10-31T00:56:30;97234.88;;;11.24;100.00
13434;BME280;6789;47.678;9.158;2022-10-31T01:01:22;97233.28;;;11.23;100.00
13434;BME280;6789;47.678;9.158;2022-10-31T01:06:14;97227.16;;;11.29;100.00
13434;BME280;6789;47.678;9.158;2022-10-31T01:11:16;97230.38;;;11.31;100.00
13434;BME280;6789;47.678;9.158;2022-10-31T01:16:13;97232.22;;;11.31;100.00
13434;BME280;6789;47.678;9.158;2022-10-31T01:21:12;97224.91;;;11.33;100.00
13434;BME280;6789;47.678;9.158;2022-10-31T01:26:11;97228.13;;;11.35;100.00
13434;BME280;6789;47.678;9.158;2022-10-31T01:31:08;97225.72;;;11.33;100.00
13434;BME280;6789;47.678;9.158;2022-10-31T01:36:01;97223.09;;;11.33;100.00
13434;BME280;6789;47.678;9.158;2022-10-31T01:40:53;97227.53;;;11.33;100.00
13434;BME280;6789;47.678;9.158;2022-10-31T01:45:52;97227.34;;;11.34;100.00
13434;BME280;6789;47.678;9.158;2022-10-31T01:50:50;97223.59;;;11.24;100.00
13434;BME280;6789;47.678;9.158;2022-10-31T01:55:45;97235.09;;;11.23;100.00
13434;BME280;6789;47.678;9.158;2022-10-31T02:00:39;97225.94;;;11.32;100.00
13434;BME280;6789;47.678;9.158;2022-10-31T02:05:33;97235.69;;;11.25;100.00
13434;BME280;6789;47.678;9.158;2022-10-31T02:10:27;97245.44;;;11.18;100.00
13434;BME280;6789;47.678;9.158;2022-10-31T02:15:19;97240.09;;;11.06;100.00
13434;BME280;6789;47.678;9.158;2022-10-31T02:20:23;97233.81;;;11.07;100.00
13434;BME280;6789;47.678;9.158;2022-10-31T02:25:36;97225.09;;;11.13;100.00
13434;BME280;6789;47.678;9.158;2022-10-31T02:30:55;97232.00;;;11.08;100.00
13434;BME280;6789;47.678;9.158;2022-10-31T02:36:16;97225.31;;;11.12;100.00
13434;BME280;6789;47.678;9.158;2022-10-31T02:41:34;97224.78;;;11.03;100.00
13434;BME280;6789;47.678;9.158;2022-10-31T02:46:44;97221.97;;;10.98;100.00
13434;BME280;6789;47.678;9.158;2022-10-31T02:51:38;97226.84;;;10.95;100.00
13434;BME280;6789;47.678;9.158;2022-10-31T02:56:30;97218.19;;;10.94;100.00
13434;BME280;6789;47.678;9.158;2022-10-31T03:01:48;97216.53;;;11.00;100.00
13434;BME280;6789;47.678;9.158;2022-10-31T03:07:27;97214.44;;;11.08;100.00
13434;BME280;6789;47.678;9.158;2022-10-31T03:12:49;97215.69;;;11.06;100.00
13434;BME280;6789;47.678;9.158;2022-10-31T03:18:04;97220.84;;;11.12;100.00
13434;BME280;6789;47.678;9.158;2022-10-31T03:23:02;97215.97;;;11.16;100.00
13434;BME280;6789;47.678;9.158;2022-10-31T03:27:58;97220.44;;;11.15;100.00
13434;BME280;6789;47.678;9.158;2022-10-31T03:32:54;97223.81;;;10.98;100.00
13434;BME280;6789;47.678;9.158;2022-10-31T03:37:49;97205.31;;;10.86;100.00
13434;BME280;6789;47.678;9.158;2022-10-31T03:42:52;97203.03;;;10.72;100.00
13434;BME280;6789;47.678;9.158;2022-10-31T03:47:45;97189.16;;;10.65;100.00
13434;BME280;6789;47.678;9.158;2022-10-31T03:53:04;97188.28;;;10.71;100.00
13434;BME280;6789;47.678;9.158;2022-10-31T03:58:03;97178.03;;;10.69;100.00
13434;BME280;6789;47.678;9.158;2022-10-31T04:03:10;97183.19;;;10.76;100.00
13434;BME280;6789;47.678;9.158;2022-10-31T04:08:08;97175.34;;;10.76;100.00
13434;BME280;6789;47.678;9.158;2022-10-31T04:13:08;97171.53;;;10.72;100.00
13434;BME280;6789;47.678;9.158;2022-10-31T04:18:05;97156.97;;;10.76;100.00
13434;BME280;6789;47.678;9.158;2022-10-31T04:22:57;97162.19;;;10.82;100.00
13434;BME280;6789;47.678;9.158;2022-10-31T04:27:49;97154.09;;;10.84;100.00
13434;BME280;6789;47.678;9.158;2022-10-31T04:32:40;97161.06;;;10.72;100.00
13434;BME280;6789;47.678;9.158;2022-10-31T04:37:32;97152.16;;;10.73;100.00
13434;BME280;6789;47.678;9.158;2022-10-31T04:42:24;97148.84;;;10.84;100.00
13434;BME280;6789;47.678;9.158;2022-10-31T04:47:15;97155.84;;;10.90;100.00
13434;BME280;6789;47.678;9.158;2022-10-31T04:52:07;97147.13;;;10.96;100.00
13434;BME280;6789;47.678;9.158;2022-10-31T04:56:59;97153.34;;;11.01;100.00
13434;BME280;6789;47.678;9.158;2022-10-31T05:01:51;97145.88;;;10.98;100.00
13434;BME280;6789;47.678;9.158;2022-10-31T05:06:58;97145.59;;;11.06;100.00
13434;BME280;6789;47.678;9.158;2022-10-31T05:12:06;97144.97;;;11.11;100.00
13434;BME280;6789;47.678;9.158;2022-10-31T05:18:07;97150.34;;;11.16;100.00
13434;BME280;6789;47.678;9.158;2022-10-31T05:23:14;97137.84;;;11.18;100.00
13434;BME280;6789;47.678;9.158;2022-10-31T05:28:21;97131.56;;;11.19;100.00
13434;BME280;6789;47.678;9.158;2022-10-31T05:33:28;97136.81;;;11.19;100.00
13434;BME280;6789;47.678;9.158;2022-10-31T05:38:38;97127.03;;;11.26;100.00
13434;BME280;6789;47.678;9.158;2022-10-31T05:43:48;97131.63;;;11.12;100.00
13434;BME280;6789;47.678;9.158;2022-10-31T05:48:54;97139.50;;;11.12;100.00
13434;BME280;6789;47.678;9.158;2022-10-31T05:54:00;97127.75;;;11.15;100.00
13434;BME280;6789;47.678;9.158;2022-10-31T05:59:08;97124.25;;;11.21;100.00
13434;BME280;6789;47.678;9.158;2022-10-31T06:04:20;97129.66;;;11.26;100.00
13434;BME280;6789;47.678;9.158;2022-10-31T06:09:26;97124.38;;;11.08;100.00
13434;BME280;6789;47.678;9.158;2022-10-31T06:14:55;97125.56;;;11.12;100.00
13434;BME280;6789;47.678;9.158;2022-10-31T06:20:16;97135.06;;;11.13;100.00
13434;BME280;6789;47.678;9.158;2022-10-31T06:25:27;97140.88;;;11.15;100.00
13434;BME280;6789;47.678;9.158;2022-10-31T06:30:34;97143.88;;;11.18;100.00
13434;BME280;6789;47.678;9.158;2022-10-31T06:35:53;97137.38;;;11.21;100.00
13434;BME280;6789;47.678;9.158;2022-10-31T06:41:19;97146.06;;;11.21;100.00
13434;BME280;6789;47.678;9.158;2022-10-31T06:46:31;97147.22;;;11.25;100.00
13434;BME280;6789;47.678;9.158;2022-10-31T06:51:49;97166.25;;;11.21;100.00
13434;BME280;6789;47.678;9.158;2022-10-31T06:56:55;97148.63;;;11.28;100.00
13434;BME280;6789;47.678;9.158;2022-10-31T07:02:02;97157.97;;;11.41;100.00
13434;BME280;6789;47.678;9.158;2022-10-31T07:07:09;97163.63;;;11.38;100.00
13434;BME280;6789;47.678;9.158;2022-10-31T07:12:16;97166.44;;;11.43;100.00
13434;BME280;6789;47.678;9.158;2022-10-31T07:17:32;97170.66;;;11.44;100.00
13434;BME280;6789;47.678;9.158;2022-10-31T07:22:42;97168.75;;;11.34;100.00
13434;BME280;6789;47.678;9.158;2022-10-31T07:27:49;97172.75;;;11.36;100.00
13434;BME280;6789;47.678;9.158;2022-10-31T07:32:55;97176.72;;;11.45;100.00
13434;BME280;6789;47.678;9.158;2022-10-31T07:38:27;97181.91;;;11.51;100.00
13434;BME280;6789;47.678;9.158;2022-10-31T07:44:21;97190.91;;;11.62;100.00
13434;BME280;6789;47.678;9.158;2022-10-31T07:49:51;97195.94;;;11.63;100.00
13434;BME280;6789;47.678;9.158;2022-10-31T07:55:05;97204.03;;;11.62;100.00
13434;BME280;6789;47.678;9.158;2022-10-31T08:00:18;97199.59;;;11.62;100.00
13434;BME280;6789;47.678;9.158;2022-10-31T08:05:31;97196.22;;;11.73;100.00
13434;BME280;6789;47.678;9.158;2022-10-31T08:10:38;97193.16;;;11.76;100.00
13434;BME280;6789;47.678;9.158;2022-10-31T08:16:42;97197.25;;;11.90;100.00
13434;BME280;6789;47.678;9.158;2022-10-31T08:21:53;97191.31;;;11.95;100.00
13434;BME280;6789;47.678;9.158;2022-10-31T08:27:53;97197.81;;;11.92;100.00
13434;BME280;6789;47.678;9.158;2022-10-31T08:33:20;97201.38;;;11.98;100.00
13434;BME280;6789;47.678;9.158;2022-10-31T08:39:22;97193.38;;;11.93;100.00
13434;BME280;6789;47.678;9.158;2022-10-31T08:45:05;97198.81;;;12.09;100.00
13434;BME280;6789;47.678;9.158;2022-10-31T08:50:48;97199.38;;;12.29;100.00
13434;BME280;6789;47.678;9.158;2022-10-31T08:55:58;97200.38;;;12.28;100.00
13434;BME280;6789;47.678;9.158;2022-10-31T09:01:04;97197.09;;;12.32;100.00
13434;BME280;6789;47.678;9.158;2022-10-31T09:06:35;97194.06;;;12.17;100.00
13434;BME280;6789;47.678;9.158;2022-10-31T09:12:01;97193.56;;;12.38;100.00
13434;BME280;6789;47.678;9.158;2022-10-31T09:43:22;97168.00;;;12.97;100.00
13434;BME280;6789;47.678;9.158;2022-10-31T09:55:35;97171.09;;;13.17;100.00
13434;BME280;6789;47.678;9.158;2022-10-31T10:01:32;97166.47;;;13.47;100.00
13434;BME280;6789;47.678;9.158;2022-10-31T10:06:52;97184.44;;;13.50;100.00
13434;BME280;6789;47.678;9.158;2022-10-31T10:12:53;97165.13;;;13.45;100.00
13434;BME280;6789;47.678;9.158;2022-10-31T10:18:43;97169.66;;;13.49;100.00
13434;BME280;6789;47.678;9.158;2022-10-31T10:30:13;97142.53;;;13.88;100.00
13434;BME280;6789;47.678;9.158;2022-10-31T10:35:50;97142.03;;;14.02;100.00
13434;BME280;6789;47.678;9.158;2022-10-31T10:41:46;97140.22;;;14.30;100.00
13434;BME280;6789;47.678;9.158;2022-10-31T10:47:54;97127.59;;;14.32;100.00
13434;BME280;6789;47.678;9.158;2022-10-31T10:59:18;97121.41;;;13.99;100.00
13434;BME280;6789;47.678;9.158;2022-10-31T11:05:03;97124.66;;;13.90;100.00
13434;BME280;6789;47.678;9.158;2022-10-31T11:22:40;97121.06;;;13.68;100.00
13434;BME280;6789;47.678;9.158;2022-10-31T11:35:30;97094.16;;;13.66;100.00
13434;BME280;6789;47.678;9.158;2022-10-31T11:42:12;97111.44;;;13.62;100.00
13434;BME280;6789;47.678;9.158;2022-10-31T11:48:46;97100.09;;;13.73;100.00
13434;BME280;6789;47.678;9.158;2022-10-31T12:07:44;97067.59;;;14.12;100.00
13434;BME280;6789;47.678;9.158;2022-10-31T12:33:36;97050.06;;;14.66;100.00
13434;BME280;6789;47.678;9.158;2022-10-31T12:40:07;97041.13;;;15.10;100.00
13434;BME280;6789;47.678;9.158;2022-10-31T13:04:33;96977.16;;;16.30;95.21
13434;BME280;6789;47.678;9.158;2022-10-31T13:10:35;96973.38;;;16.26;96.67
13434;BME280;6789;47.678;9.158;2022-10-31T13:16:28;96968.72;;;16.33;96.53
13434;BME280;6789;47.678;9.158;2022-10-31T13:22:12;96964.31;;;16.48;95.35
13434;BME280;6789;47.678;9.158;2022-10-31T13:39:09;96930.94;;;15.79;99.26
13434;BME280;6789;47.678;9.158;2022-10-31T13:44:51;96929.31;;;15.47;100.00
13434;BME280;6789;47.678;9.158;2022-10-31T13:50:31;96919.75;;;15.20;100.00
13434;BME280;6789;47.678;9.158;2022-10-31T13:56:43;96920.31;;;15.22;100.00
13434;BME280;6789;47.678;9.158;2022-10-31T14:02:15;96918.28;;;15.29;100.00
13434;BME280;6789;47.678;9.158;2022-10-31T14:20:44;96910.31;;;15.24;100.00
13434;BME280;6789;47.678;9.158;2022-10-31T14:32:26;96912.94;;;14.81;100.00
13434;BME280;6789;47.678;9.158;2022-10-31T14:54:42;96888.22;;;14.28;100.00
13434;BME280;6789;47.678;9.158;2022-10-31T15:19:07;96870.19;;;13.71;100.00
13434;BME280;6789;47.678;9.158;2022-10-31T15:25:21;96867.97;;;13.63;100.00
13434;BME280;6789;47.678;9.158;2022-10-31T15:31:29;96856.13;;;13.49;100.00
13434;BME280;6789;47.678;9.158;2022-10-31T15:37:29;96855.13;;;13.06;100.00
13434;BME280;6789;47.678;9.158;2022-10-31T15:43:44;96839.91;;;12.69;100.00
13434;BME280;6789;47.678;9.158;2022-10-31T16:09:54;96817.88;;;12.08;100.00
13434;BME280;6789;47.678;9.158;2022-10-31T16:20:50;96809.56;;;11.99;100.00
13434;BME280;6789;47.678;9.158;2022-10-31T16:32:53;96796.19;;;11.89;100.00
13434;BME280;6789;47.678;9.158;2022-10-31T16:39:11;96785.00;;;11.82;100.00
13434;BME280;6789;47.678;9.158;2022-10-31T16:45:05;96781.91;;;11.85;100.00
13434;BME280;6789;47.678;9.158;2022-10-31T16:51:13;96785.00;;;11.94;100.00
13434;BME280;6789;47.678;9.158;2022-10-31T16:56:51;96801.09;;;11.86;100.00
13434;BME280;6789;47.678;9.158;2022-10-31T17:21:28;96796.84;;;11.50;100.00
13434;BME280;6789;47.678;9.158;2022-10-31T17:26:33;96776.63;;;11.39;100.00
13434;BME280;6789;47.678;9.158;2022-10-31T17:31:47;96772.53;;;11.43;100.00
13434;BME280;6789;47.678;9.158;2022-10-31T17:37:19;96774.34;;;11.43;100.00
13434;BME280;6789;47.678;9.158;2022-10-31T17:56:28;96765.94;;;11.52;100.00
13434;BME280;6789;47.678;9.158;2022-10-31T18:02:00;96765.34;;;11.50;100.00
13434;BME280;6789;47.678;9.158;2022-10-31T18:07:58;96763.41;;;11.57;100.00
13434;BME280;6789;47.678;9.158;2022-10-31T18:25:37;96776.66;;;11.74;100.00
13434;BME280;6789;47.678;9.158;2022-10-31T19:03:17;96784.19;;;11.93;100.00
13434;BME280;6789;47.678;9.158;2022-10-31T19:08:33;96810.91;;;11.79;100.00
13434;BME280;6789;47.678;9.158;2022-10-31T19:13:43;96815.16;;;11.91;100.00
13434;BME280;6789;47.678;9.158;2022-10-31T19:19:13;96826.69;;;11.90;100.00
13434;BME280;6789;47.678;9.158;2022-10-31T19:24:44;96837.19;;;11.79;100.00
13434;BME280;6789;47.678;9.158;2022-10-31T19:29:57;96847.72;;;11.67;100.00
13434;BME280;6789;47.678;9.158;2022-10-31T19:35:33;96870.78;;;11.65;100.00
13434;BME280;6789;47.678;9.158;2022-10-31T19:41:08;96873.97;;;11.56;100.00
13434;BME280;6789;47.678;9.158;2022-10-31T19:52:39;96869.38;;;11.51;100.00
13434;BME280;6789;47.678;9.158;2022-10-31T19:58:51;96846.75;;;11.50;100.00
13434;BME280;6789;47.678;9.158;2022-10-31T20:10:12;96854.22;;;11.53;100.00
13434;BME280;6789;47.678;9.158;2022-10-31T20:16:27;96843.03;;;11.58;100.00
13434;BME280;6789;47.678;9.158;2022-10-31T20:22:09;96846.34;;;11.65;100.00
13434;BME280;6789;47.678;9.158;2022-10-31T20:28:03;96847.94;;;11.66;100.00
13434;BME280;6789;47.678;9.158;2022-10-31T20:39:53;96840.53;;;11.74;100.00
13434;BME280;6789;47.678;9.158;2022-10-31T20:45:36;96840.06;;;11.77;100.00
13434;BME280;6789;47.678;9.158;2022-10-31T21:02:07;96851.84;;;11.86;100.00
13434;BME280;6789;47.678;9.158;2022-10-31T21:08:32;96840.41;;;11.92;100.00
13434;BME280;6789;47.678;9.158;2022-10-31T21:14:35;96843.72;;;11.99;100.00
13434;BME280;6789;47.678;9.158;2022-10-31T21:38:10;96839.94;;;11.95;100.00
